sensor_id;sensor_type;location;lat;lon;timestamp;pressure;altitude;pressure_sealevel;temperature;humidity
21803;BME280;18591;47.080;22.214;2022-10-16T00:00:27;100229.00;;;15.16;54.17
21803;BME280;18591;47.080;22.214;2022-10-16T00:02:29;100229.94;;;15.15;54.16
21803;BME280;18591;47.080;22.214;2022-10-16T00:04:31;100232.78;;;15.12;54.17
21803;BME280;18591;47.080;22.214;2022-10-16T00:06:33;100229.06;;;15.14;54.26
21803;BME280;18591;47.080;22.214;2022-10-16T00:08:36;100229.41;;;15.07;54.41
21803;BME280;18591;47.080;22.214;2022-10-16T00:10:39;100234.75;;;15.08;54.25
21803;BME280;18591;47.080;22.214;2022-10-16T00:12:41;100232.25;;;15.03;54.17
21803;BME280;18591;47.080;22.214;2022-10-16T00:14:43;100233.28;;;15.01;54.21
21803;BME280;18591;47.080;22.214;2022-10-16T00:16:45;100238.88;;;14.96;54.06
21803;BME280;18591;47.080;22.214;2022-10-16T00:18:47;100240.72;;;14.96;54.32
21803;BME280;18591;47.080;22.214;2022-10-16T00:20:50;100244.34;;;14.95;54.27
21803;BME280;18591;47.080;22.214;2022-10-16T00:22:52;100242.59;;;14.94;54.33
21803;BME280;18591;47.080;22.214;2022-10-16T00:24:55;100240.88;;;14.93;54.12
21803;BME280;18591;47.080;22.214;2022-10-16T00:26:57;100242.66;;;14.92;54.28
21803;BME280;18591;47.080;22.214;2022-10-16T00:29:00;100245.72;;;14.85;54.04
21803;BME280;18591;47.080;22.214;2022-10-16T00:31:12;100242.34;;;14.79;54.89
21803;BME280;18591;47.080;22.214;2022-10-16T00:33:14;100244.13;;;14.80;55.33
21803;BME280;18591;47.080;22.214;2022-10-16T00:35:16;100245.59;;;14.88;55.03
21803;BME280;18591;47.080;22.214;2022-10-16T00:37:18;100244.84;;;14.84;55.46
21803;BME280;18591;47.080;22.214;2022-10-16T00:39:20;100243.44;;;14.75;55.22
21803;BME280;18591;47.080;22.214;2022-10-16T00:41:26;100244.84;;;14.64;56.08
21803;BME280;18591;47.080;22.214;2022-10-16T00:43:43;100241.31;;;14.62;56.39
21803;BME280;18591;47.080;22.214;2022-10-16T00:45:45;100244.97;;;14.61;56.09
21803;BME280;18591;47.080;22.214;2022-10-16T00:47:48;100248.38;;;14.66;55.81
21803;BME280;18591;47.080;22.214;2022-10-16T00:49:58;100247.50;;;14.65;56.28
21803;BME280;18591;47.080;22.214;2022-10-16T00:52:02;100255.28;;;14.73;55.64
21803;BME280;18591;47.080;22.214;2022-10-16T00:54:13;100251.94;;;14.66;56.54
21803;BME280;18591;47.080;22.214;2022-10-16T00:56:17;100251.06;;;14.66;55.46
21803;BME280;18591;47.080;22.214;2022-10-16T00:58:20;100251.06;;;14.66;55.49
21803;BME280;18591;47.080;22.214;2022-10-16T01:00:25;100251.34;;;14.59;55.37
21803;BME280;18591;47.080;22.214;2022-10-16T01:02:28;100253.03;;;14.62;55.04
21803;BME280;18591;47.080;22.214;2022-10-16T01:04:34;100249.72;;;14.55;55.32
21803;BME280;18591;47.080;22.214;2022-10-16T01:11:17;100243.59;;;14.50;55.27
21803;BME280;18591;47.080;22.214;2022-10-16T01:13:27;100247.16;;;14.51;55.14
21803;BME280;18591;47.080;22.214;2022-10-16T01:15:48;100250.00;;;14.48;55.60
21803;BME280;18591;47.080;22.214;2022-10-16T01:17:57;100239.91;;;14.53;55.12
21803;BME280;18591;47.080;22.214;2022-10-16T01:22:20;100240.94;;;14.49;54.86
21803;BME280;18591;47.080;22.214;2022-10-16T01:24:33;100252.03;;;14.43;55.50
21803;BME280;18591;47.080;22.214;2022-10-16T01:29:07;100259.19;;;14.44;55.06
21803;BME280;18591;47.080;22.214;2022-10-16T01:31:15;100262.97;;;14.40;55.69
21803;BME280;18591;47.080;22.214;2022-10-16T01:33:30;100255.00;;;14.36;55.52
21803;BME280;18591;47.080;22.214;2022-10-16T01:35:44;100259.44;;;14.37;55.82
21803;BME280;18591;47.080;22.214;2022-10-16T01:39:51;100264.00;;;14.37;56.80
21803;BME280;18591;47.080;22.214;2022-10-16T01:42:16;100257.91;;;14.32;56.69
21803;BME280;18591;47.080;22.214;2022-10-16T01:44:25;100258.63;;;14.35;56.65
21803;BME280;18591;47.080;22.214;2022-10-16T01:46:31;100269.25;;;14.40;56.43
21803;BME280;18591;47.080;22.214;2022-10-16T01:48:34;100265.88;;;14.35;56.13
21803;BME280;18591;47.080;22.214;2022-10-16T01:50:39;100270.66;;;14.28;57.40
21803;BME280;18591;47.080;22.214;2022-10-16T01:52:45;100271.19;;;14.16;58.10
21803;BME280;18591;47.080;22.214;2022-10-16T01:54:50;100274.09;;;14.10;58.70
21803;BME280;18591;47.080;22.214;2022-10-16T01:56:55;100269.63;;;14.10;57.72
21803;BME280;18591;47.080;22.214;2022-10-16T01:59:04;100275.00;;;14.10;57.95
21803;BME280;18591;47.080;22.214;2022-10-16T02:01:08;100281.03;;;14.17;57.46
21803;BME280;18591;47.080;22.214;2022-10-16T02:03:19;100276.44;;;14.19;57.30
21803;BME280;18591;47.080;22.214;2022-10-16T02:07:35;100283.41;;;14.25;56.83
21803;BME280;18591;47.080;22.214;2022-10-16T02:09:38;100277.09;;;14.26;56.59
21803;BME280;18591;47.080;22.214;2022-10-16T02:11:40;100282.50;;;14.26;56.60
21803;BME280;18591;47.080;22.214;2022-10-16T02:13:53;100287.06;;;14.24;56.92
21803;BME280;18591;47.080;22.214;2022-10-16T02:15:57;100284.28;;;14.25;56.90
21803;BME280;18591;47.080;22.214;2022-10-16T02:17:59;100295.53;;;14.14;57.50
21803;BME280;18591;47.080;22.214;2022-10-16T02:20:02;100287.88;;;14.04;57.69
21803;BME280;18591;47.080;22.214;2022-10-16T02:22:06;100293.78;;;13.91;58.67
21803;BME280;18591;47.080;22.214;2022-10-16T02:26:52;100293.66;;;13.94;58.22
21803;BME280;18591;47.080;22.214;2022-10-16T02:29:02;100304.03;;;14.05;57.99
21803;BME280;18591;47.080;22.214;2022-10-16T02:31:10;100302.03;;;14.10;57.32
21803;BME280;18591;47.080;22.214;2022-10-16T02:33:14;100303.78;;;14.11;57.22
21803;BME280;18591;47.080;22.214;2022-10-16T02:35:20;100304.09;;;14.04;57.69
21803;BME280;18591;47.080;22.214;2022-10-16T02:37:24;100303.91;;;14.08;57.32
21803;BME280;18591;47.080;22.214;2022-10-16T02:39:28;100296.88;;;14.04;57.21
21803;BME280;18591;47.080;22.214;2022-10-16T02:41:31;100293.03;;;14.10;56.83
21803;BME280;18591;47.080;22.214;2022-10-16T02:43:34;100301.41;;;14.04;56.94
21803;BME280;18591;47.080;22.214;2022-10-16T02:45:36;100307.59;;;13.84;58.11
21803;BME280;18591;47.080;22.214;2022-10-16T02:47:38;100300.03;;;13.70;58.32
21803;BME280;18591;47.080;22.214;2022-10-16T02:49:43;100300.84;;;13.72;58.46
21803;BME280;18591;47.080;22.214;2022-10-16T02:51:45;100308.13;;;13.70;58.21
21803;BME280;18591;47.080;22.214;2022-10-16T02:53:47;100314.97;;;13.79;58.02
21803;BME280;18591;47.080;22.214;2022-10-16T02:55:49;100309.28;;;13.86;58.03
21803;BME280;18591;47.080;22.214;2022-10-16T02:57:51;100304.19;;;13.79;58.15
21803;BME280;18591;47.080;22.214;2022-10-16T02:59:54;100312.44;;;13.74;58.28
21803;BME280;18591;47.080;22.214;2022-10-16T03:01:56;100312.28;;;13.79;58.01
21803;BME280;18591;47.080;22.214;2022-10-16T03:03:58;100315.38;;;13.69;58.94
21803;BME280;18591;47.080;22.214;2022-10-16T03:06:00;100320.34;;;13.57;58.99
21803;BME280;18591;47.080;22.214;2022-10-16T03:08:02;100314.25;;;13.52;59.20
21803;BME280;18591;47.080;22.214;2022-10-16T03:10:05;100315.13;;;13.52;59.96
21803;BME280;18591;47.080;22.214;2022-10-16T03:12:07;100316.16;;;13.48;60.09
21803;BME280;18591;47.080;22.214;2022-10-16T03:14:09;100325.84;;;13.54;59.61
21803;BME280;18591;47.080;22.214;2022-10-16T03:16:11;100320.16;;;13.61;59.35
21803;BME280;18591;47.080;22.214;2022-10-16T03:18:13;100327.09;;;13.68;59.42
21803;BME280;18591;47.080;22.214;2022-10-16T03:20:15;100329.03;;;13.65;59.62
21803;BME280;18591;47.080;22.214;2022-10-16T03:22:18;100334.72;;;13.57;59.52
21803;BME280;18591;47.080;22.214;2022-10-16T03:24:19;100331.91;;;13.60;59.29
21803;BME280;18591;47.080;22.214;2022-10-16T03:26:21;100337.34;;;13.59;59.61
21803;BME280;18591;47.080;22.214;2022-10-16T03:28:23;100341.00;;;13.58;59.90
21803;BME280;18591;47.080;22.214;2022-10-16T03:30:25;100337.19;;;13.63;59.42
21803;BME280;18591;47.080;22.214;2022-10-16T03:32:27;100337.19;;;13.63;59.69
21803;BME280;18591;47.080;22.214;2022-10-16T03:34:30;100335.13;;;13.70;59.29
21803;BME280;18591;47.080;22.214;2022-10-16T03:36:33;100325.50;;;13.63;59.75
21803;BME280;18591;47.080;22.214;2022-10-16T03:38:35;100340.75;;;13.64;59.80
21803;BME280;18591;47.080;22.214;2022-10-16T03:40:37;100330.84;;;13.64;59.60
21803;BME280;18591;47.080;22.214;2022-10-16T03:42:39;100339.16;;;13.58;60.15
21803;BME280;18591;47.080;22.214;2022-10-16T03:44:41;100342.94;;;13.54;60.32
21803;BME280;18591;47.080;22.214;2022-10-16T03:46:43;100341.03;;;13.56;60.41
21803;BME280;18591;47.080;22.214;2022-10-16T03:48:45;100347.44;;;13.54;60.67
21803;BME280;18591;47.080;22.214;2022-10-16T03:50:50;100345.56;;;13.56;60.86
21803;BME280;18591;47.080;22.214;2022-10-16T03:52:53;100346.56;;;13.53;60.47
21803;BME280;18591;47.080;22.214;2022-10-16T03:54:55;100343.94;;;13.52;60.79
21803;BME280;18591;47.080;22.214;2022-10-16T03:56:57;100333.19;;;13.50;60.72
21803;BME280;18591;47.080;22.214;2022-10-16T03:59:00;100335.88;;;13.50;60.56
21803;BME280;18591;47.080;22.214;2022-10-16T04:01:05;100344.81;;;13.52;60.34
21803;BME280;18591;47.080;22.214;2022-10-16T04:03:07;100343.81;;;13.55;60.18
21803;BME280;18591;47.080;22.214;2022-10-16T04:05:09;100340.88;;;13.61;59.64
21803;BME280;18591;47.080;22.214;2022-10-16T04:07:11;100343.44;;;13.64;59.74
21803;BME280;18591;47.080;22.214;2022-10-16T04:09:13;100344.22;;;13.67;59.17
21803;BME280;18591;47.080;22.214;2022-10-16T04:11:16;100346.75;;;13.72;58.93
21803;BME280;18591;47.080;22.214;2022-10-16T04:13:18;100350.25;;;13.74;59.02
21803;BME280;18591;47.080;22.214;2022-10-16T04:15:25;100363.00;;;13.70;58.78
21803;BME280;18591;47.080;22.214;2022-10-16T04:17:27;100354.91;;;13.70;59.02
21803;BME280;18591;47.080;22.214;2022-10-16T04:19:29;100354.44;;;13.59;59.20
21803;BME280;18591;47.080;22.214;2022-10-16T04:21:31;100352.84;;;13.54;59.80
21803;BME280;18591;47.080;22.214;2022-10-16T04:23:34;100362.16;;;13.45;59.84
21803;BME280;18591;47.080;22.214;2022-10-16T04:25:36;100361.34;;;13.43;59.69
21803;BME280;18591;47.080;22.214;2022-10-16T04:27:38;100372.69;;;13.53;59.40
21803;BME280;18591;47.080;22.214;2022-10-16T04:29:45;100365.81;;;13.44;59.75
21803;BME280;18591;47.080;22.214;2022-10-16T04:31:47;100364.00;;;13.44;59.43
21803;BME280;18591;47.080;22.214;2022-10-16T04:33:50;100365.34;;;13.56;59.22
21803;BME280;18591;47.080;22.214;2022-10-16T04:35:58;100364.47;;;13.56;59.09
21803;BME280;18591;47.080;22.214;2022-10-16T04:38:01;100368.88;;;13.58;58.70
21803;BME280;18591;47.080;22.214;2022-10-16T04:40:04;100363.47;;;13.58;58.76
21803;BME280;18591;47.080;22.214;2022-10-16T04:42:06;100357.16;;;13.59;58.89
21803;BME280;18591;47.080;22.214;2022-10-16T04:44:09;100355.50;;;13.55;59.01
21803;BME280;18591;47.080;22.214;2022-10-16T04:46:11;100364.13;;;13.41;59.22
21803;BME280;18591;47.080;22.214;2022-10-16T04:48:14;100359.19;;;13.27;59.85
21803;BME280;18591;47.080;22.214;2022-10-16T04:50:16;100358.00;;;13.36;59.51
21803;BME280;18591;47.080;22.214;2022-10-16T04:52:35;100351.50;;;13.15;60.65
21803;BME280;18591;47.080;22.214;2022-10-16T04:54:37;100353.00;;;13.24;59.86
21803;BME280;18591;47.080;22.214;2022-10-16T04:56:40;100357.81;;;13.16;60.14
21803;BME280;18591;47.080;22.214;2022-10-16T04:58:48;100356.16;;;13.12;60.54
21803;BME280;18591;47.080;22.214;2022-10-16T05:00:50;100370.75;;;13.06;60.92
21803;BME280;18591;47.080;22.214;2022-10-16T05:02:52;100359.94;;;13.06;60.71
21803;BME280;18591;47.080;22.214;2022-10-16T05:04:54;100365.47;;;13.03;60.58
21803;BME280;18591;47.080;22.214;2022-10-16T05:06:56;100375.25;;;13.05;60.78
21803;BME280;18591;47.080;22.214;2022-10-16T05:08:58;100375.16;;;13.08;60.69
21803;BME280;18591;47.080;22.214;2022-10-16T05:11:00;100373.19;;;13.12;60.39
21803;BME280;18591;47.080;22.214;2022-10-16T05:13:03;100379.91;;;13.25;60.32
21803;BME280;18591;47.080;22.214;2022-10-16T05:15:06;100374.25;;;13.35;60.01
21803;BME280;18591;47.080;22.214;2022-10-16T05:17:08;100383.16;;;13.37;59.84
21803;BME280;18591;47.080;22.214;2022-10-16T05:19:10;100378.16;;;13.24;60.53
21803;BME280;18591;47.080;22.214;2022-10-16T05:21:29;100384.19;;;13.33;60.05
21803;BME280;18591;47.080;22.214;2022-10-16T05:23:32;100382.28;;;13.36;60.31
21803;BME280;18591;47.080;22.214;2022-10-16T05:25:34;100383.28;;;13.34;60.81
21803;BME280;18591;47.080;22.214;2022-10-16T05:27:36;100379.88;;;13.28;60.46
21803;BME280;18591;47.080;22.214;2022-10-16T05:29:38;100377.78;;;13.37;60.45
21803;BME280;18591;47.080;22.214;2022-10-16T05:31:40;100375.78;;;13.42;60.44
21803;BME280;18591;47.080;22.214;2022-10-16T05:33:42;100380.03;;;13.49;60.66
21803;BME280;18591;47.080;22.214;2022-10-16T05:35:45;100380.75;;;13.54;60.76
21803;BME280;18591;47.080;22.214;2022-10-16T05:37:48;100385.63;;;13.68;60.48
21803;BME280;18591;47.080;22.214;2022-10-16T05:39:51;100387.84;;;13.80;60.35
21803;BME280;18591;47.080;22.214;2022-10-16T05:41:53;100394.66;;;13.90;60.49
21803;BME280;18591;47.080;22.214;2022-10-16T05:43:55;100394.38;;;13.98;60.55
21803;BME280;18591;47.080;22.214;2022-10-16T05:45:59;100396.81;;;14.04;60.75
21803;BME280;18591;47.080;22.214;2022-10-16T05:48:01;100405.34;;;14.17;60.25
21803;BME280;18591;47.080;22.214;2022-10-16T05:50:03;100402.09;;;14.31;60.17
21803;BME280;18591;47.080;22.214;2022-10-16T05:52:06;100407.13;;;14.40;60.06
21803;BME280;18591;47.080;22.214;2022-10-16T05:54:08;100414.31;;;14.41;59.89
21803;BME280;18591;47.080;22.214;2022-10-16T05:56:11;100415.31;;;14.38;60.45
21803;BME280;18591;47.080;22.214;2022-10-16T05:58:14;100413.09;;;14.48;60.50
21803;BME280;18591;47.080;22.214;2022-10-16T06:00:16;100411.91;;;14.57;60.27
21803;BME280;18591;47.080;22.214;2022-10-16T06:02:18;100421.31;;;14.69;60.22
21803;BME280;18591;47.080;22.214;2022-10-16T06:04:20;100410.03;;;14.79;60.02
21803;BME280;18591;47.080;22.214;2022-10-16T06:06:24;100414.41;;;14.84;60.18
21803;BME280;18591;47.080;22.214;2022-10-16T06:08:27;100413.34;;;14.88;59.95
21803;BME280;18591;47.080;22.214;2022-10-16T06:10:29;100417.41;;;14.98;60.11
21803;BME280;18591;47.080;22.214;2022-10-16T06:12:31;100427.66;;;15.12;59.93
21803;BME280;18591;47.080;22.214;2022-10-16T06:14:33;100423.41;;;15.27;59.40
21803;BME280;18591;47.080;22.214;2022-10-16T06:16:36;100427.53;;;15.35;59.34
21803;BME280;18591;47.080;22.214;2022-10-16T06:18:39;100423.31;;;15.49;59.05
21803;BME280;18591;47.080;22.214;2022-10-16T06:20:41;100423.75;;;15.60;59.35
21803;BME280;18591;47.080;22.214;2022-10-16T06:22:42;100425.13;;;15.70;59.26
21803;BME280;18591;47.080;22.214;2022-10-16T06:24:45;100423.13;;;15.74;59.00
21803;BME280;18591;47.080;22.214;2022-10-16T06:26:48;100428.81;;;15.88;58.74
21803;BME280;18591;47.080;22.214;2022-10-16T06:28:50;100431.75;;;16.02;58.62
21803;BME280;18591;47.080;22.214;2022-10-16T06:30:58;100429.56;;;16.10;58.67
21803;BME280;18591;47.080;22.214;2022-10-16T06:33:07;100433.47;;;16.24;58.59
21803;BME280;18591;47.080;22.214;2022-10-16T06:35:09;100433.47;;;16.24;58.59
21803;BME280;18591;47.080;22.214;2022-10-16T06:37:11;100439.09;;;16.38;58.38
21803;BME280;18591;47.080;22.214;2022-10-16T06:39:13;100439.75;;;16.43;57.63
21803;BME280;18591;47.080;22.214;2022-10-16T06:41:17;100443.06;;;16.50;58.26
21803;BME280;18591;47.080;22.214;2022-10-16T06:43:19;100441.72;;;16.59;57.85
21803;BME280;18591;47.080;22.214;2022-10-16T06:45:21;100438.59;;;16.68;57.82
21803;BME280;18591;47.080;22.214;2022-10-16T06:47:23;100456.34;;;16.75;57.64
21803;BME280;18591;47.080;22.214;2022-10-16T06:49:25;100455.03;;;16.84;57.36
21803;BME280;18591;47.080;22.214;2022-10-16T06:51:27;100451.28;;;16.86;57.68
21803;BME280;18591;47.080;22.214;2022-10-16T06:53:31;100461.16;;;16.87;57.63
21803;BME280;18591;47.080;22.214;2022-10-16T06:55:44;100465.19;;;16.97;57.09
21803;BME280;18591;47.080;22.214;2022-10-16T06:57:47;100464.00;;;17.03;57.31
21803;BME280;18591;47.080;22.214;2022-10-16T06:59:49;100467.88;;;17.16;57.32
21803;BME280;18591;47.080;22.214;2022-10-16T07:01:55;100467.16;;;17.30;57.65
21803;BME280;18591;47.080;22.214;2022-10-16T07:03:58;100469.06;;;17.46;56.93
21803;BME280;18591;47.080;22.214;2022-10-16T07:06:04;100471.41;;;17.53;55.67
21803;BME280;18591;47.080;22.214;2022-10-16T07:08:06;100471.88;;;17.61;55.77
21803;BME280;18591;47.080;22.214;2022-10-16T07:10:08;100473.78;;;17.59;54.34
21803;BME280;18591;47.080;22.214;2022-10-16T07:12:10;100475.16;;;17.68;55.29
21803;BME280;18591;47.080;22.214;2022-10-16T07:14:16;100477.16;;;17.82;55.14
21803;BME280;18591;47.080;22.214;2022-10-16T07:16:20;100469.06;;;17.98;55.27
21803;BME280;18591;47.080;22.214;2022-10-16T07:18:23;100471.13;;;18.10;55.02
21803;BME280;18591;47.080;22.214;2022-10-16T07:20:28;100471.25;;;18.24;55.12
21803;BME280;18591;47.080;22.214;2022-10-16T07:22:30;100473.38;;;18.35;54.68
21803;BME280;18591;47.080;22.214;2022-10-16T07:24:32;100475.56;;;18.44;54.56
21803;BME280;18591;47.080;22.214;2022-10-16T07:26:36;100476.72;;;18.56;54.40
21803;BME280;18591;47.080;22.214;2022-10-16T07:28:38;100471.47;;;18.69;54.71
21803;BME280;18591;47.080;22.214;2022-10-16T07:30:41;100477.38;;;18.77;54.80
21803;BME280;18591;47.080;22.214;2022-10-16T07:32:43;100469.94;;;18.81;54.81
21803;BME280;18591;47.080;22.214;2022-10-16T07:34:46;100476.84;;;18.86;54.63
21803;BME280;18591;47.080;22.214;2022-10-16T07:36:51;100476.50;;;18.92;54.57
21803;BME280;18591;47.080;22.214;2022-10-16T07:38:53;100484.13;;;19.02;54.90
21803;BME280;18591;47.080;22.214;2022-10-16T07:41:03;100484.75;;;19.07;54.53
21803;BME280;18591;47.080;22.214;2022-10-16T07:43:06;100483.75;;;19.08;54.91
21803;BME280;18591;47.080;22.214;2022-10-16T07:45:08;100490.81;;;19.12;54.95
21803;BME280;18591;47.080;22.214;2022-10-16T07:47:10;100493.25;;;19.17;54.50
21803;BME280;18591;47.080;22.214;2022-10-16T07:49:13;100491.50;;;19.15;54.22
21803;BME280;18591;47.080;22.214;2022-10-16T07:51:18;100487.09;;;19.13;54.11
21803;BME280;18591;47.080;22.214;2022-10-16T07:53:20;100492.63;;;19.27;54.58
21803;BME280;18591;47.080;22.214;2022-10-16T07:55:27;100493.13;;;19.34;54.55
21803;BME280;18591;47.080;22.214;2022-10-16T07:57:29;100487.31;;;19.40;54.32
21803;BME280;18591;47.080;22.214;2022-10-16T07:59:31;100496.00;;;19.47;54.11
21803;BME280;18591;47.080;22.214;2022-10-16T08:01:34;100488.53;;;19.50;54.16
21803;BME280;18591;47.080;22.214;2022-10-16T08:03:36;100492.13;;;19.51;54.27
21803;BME280;18591;47.080;22.214;2022-10-16T08:05:38;100492.66;;;19.57;54.13
21803;BME280;18591;47.080;22.214;2022-10-16T08:07:40;100500.72;;;19.59;54.26
21803;BME280;18591;47.080;22.214;2022-10-16T08:09:42;100498.84;;;19.59;54.18
21803;BME280;18591;47.080;22.214;2022-10-16T08:11:45;100494.31;;;19.60;54.09
21803;BME280;18591;47.080;22.214;2022-10-16T08:13:47;100508.69;;;19.62;53.53
21803;BME280;18591;47.080;22.214;2022-10-16T08:15:50;100502.28;;;19.63;53.82
21803;BME280;18591;47.080;22.214;2022-10-16T08:17:59;100504.41;;;19.58;53.44
21803;BME280;18591;47.080;22.214;2022-10-16T08:20:02;100497.16;;;19.73;53.78
21803;BME280;18591;47.080;22.214;2022-10-16T08:22:05;100495.63;;;19.83;53.71
21803;BME280;18591;47.080;22.214;2022-10-16T08:24:07;100499.94;;;19.87;53.75
21803;BME280;18591;47.080;22.214;2022-10-16T08:26:11;100506.97;;;19.91;53.54
21803;BME280;18591;47.080;22.214;2022-10-16T08:28:13;100494.59;;;20.00;53.45
21803;BME280;18591;47.080;22.214;2022-10-16T08:30:16;100495.19;;;20.05;53.06
21803;BME280;18591;47.080;22.214;2022-10-16T08:32:19;100498.72;;;20.07;53.36
21803;BME280;18591;47.080;22.214;2022-10-16T08:34:27;100502.69;;;20.16;53.14
21803;BME280;18591;47.080;22.214;2022-10-16T08:36:29;100503.09;;;20.24;52.86
21803;BME280;18591;47.080;22.214;2022-10-16T08:38:34;100503.00;;;20.26;52.36
21803;BME280;18591;47.080;22.214;2022-10-16T08:40:37;100500.88;;;20.31;51.73
21803;BME280;18591;47.080;22.214;2022-10-16T08:47:19;100504.19;;;20.50;51.64
21803;BME280;18591;47.080;22.214;2022-10-16T08:49:24;100494.34;;;20.62;52.36
21803;BME280;18591;47.080;22.214;2022-10-16T08:51:29;100496.38;;;20.73;52.11
21803;BME280;18591;47.080;22.214;2022-10-16T08:53:48;100497.66;;;20.81;50.22
21803;BME280;18591;47.080;22.214;2022-10-16T08:55:52;100499.66;;;20.92;51.13
21803;BME280;18591;47.080;22.214;2022-10-16T08:57:55;100507.34;;;21.00;51.52
21803;BME280;18591;47.080;22.214;2022-10-16T09:00:00;100502.75;;;21.00;51.09
21803;BME280;18591;47.080;22.214;2022-10-16T09:06:58;100513.88;;;21.24;50.05
21803;BME280;18591;47.080;22.214;2022-10-16T09:14:23;100512.38;;;21.47;48.35
21803;BME280;18591;47.080;22.214;2022-10-16T09:16:44;100501.03;;;21.53;47.65
21803;BME280;18591;47.080;22.214;2022-10-16T09:21:14;100508.28;;;21.67;47.33
21803;BME280;18591;47.080;22.214;2022-10-16T09:23:19;100511.56;;;21.72;47.99
21803;BME280;18591;47.080;22.214;2022-10-16T09:25:24;100512.91;;;21.80;48.17
21803;BME280;18591;47.080;22.214;2022-10-16T09:27:29;100510.63;;;21.86;47.60
21803;BME280;18591;47.080;22.214;2022-10-16T09:29:34;100505.91;;;21.88;48.39
21803;BME280;18591;47.080;22.214;2022-10-16T09:31:37;100506.34;;;21.95;48.12
21803;BME280;18591;47.080;22.214;2022-10-16T09:33:40;100512.47;;;21.99;46.10
21803;BME280;18591;47.080;22.214;2022-10-16T09:35:53;100505.81;;;22.03;44.05
21803;BME280;18591;47.080;22.214;2022-10-16T09:37:56;100507.25;;;22.08;45.85
21803;BME280;18591;47.080;22.214;2022-10-16T09:39:58;100505.06;;;22.13;45.64
21803;BME280;18591;47.080;22.214;2022-10-16T09:42:11;100501.81;;;22.21;46.13
21803;BME280;18591;47.080;22.214;2022-10-16T09:44:28;100504.84;;;22.29;45.24
21803;BME280;18591;47.080;22.214;2022-10-16T09:46:35;100503.66;;;22.33;46.14
21803;BME280;18591;47.080;22.214;2022-10-16T09:48:44;100498.84;;;22.37;45.55
21803;BME280;18591;47.080;22.214;2022-10-16T09:50:56;100499.69;;;22.37;nan
21803;BME280;18591;47.080;22.214;2022-10-16T09:53:08;100496.00;;;22.38;46.05
21803;BME280;18591;47.080;22.214;2022-10-16T09:55:17;100504.75;;;22.44;45.25
21803;BME280;18591;47.080;22.214;2022-10-16T09:57:20;100495.13;;;22.51;45.64
21803;BME280;18591;47.080;22.214;2022-10-16T09:59:23;100490.03;;;22.57;45.88
21803;BME280;18591;47.080;22.214;2022-10-16T10:01:51;100498.50;;;22.54;46.25
21803;BME280;18591;47.080;22.214;2022-10-16T10:03:57;100498.16;;;22.59;46.90
21803;BME280;18591;47.080;22.214;2022-10-16T10:06:29;100498.16;;;22.59;46.40
21803;BME280;18591;47.080;22.214;2022-10-16T10:08:32;100496.72;;;22.66;46.17
21803;BME280;18591;47.080;22.214;2022-10-16T10:10:41;100495.81;;;22.66;44.67
21803;BME280;18591;47.080;22.214;2022-10-16T10:12:44;100493.28;;;22.75;45.63
21803;BME280;18591;47.080;22.214;2022-10-16T10:14:49;100495.81;;;22.78;45.58
21803;BME280;18591;47.080;22.214;2022-10-16T10:19:14;100496.34;;;22.83;45.17
21803;BME280;18591;47.080;22.214;2022-10-16T10:21:19;100497.63;;;22.91;45.79
21803;BME280;18591;47.080;22.214;2022-10-16T10:23:26;100490.19;;;22.93;43.10
21803;BME280;18591;47.080;22.214;2022-10-16T10:33:20;100490.94;;;23.08;43.31
21803;BME280;18591;47.080;22.214;2022-10-16T10:40:38;100487.91;;;23.23;43.50
21803;BME280;18591;47.080;22.214;2022-10-16T10:43:01;100485.94;;;23.25;43.49
21803;BME280;18591;47.080;22.214;2022-10-16T10:45:17;100498.81;;;23.36;44.11
21803;BME280;18591;47.080;22.214;2022-10-16T10:50:20;100494.63;;;23.43;43.69
21803;BME280;18591;47.080;22.214;2022-10-16T10:52:59;100491.34;;;23.38;42.10
21803;BME280;18591;47.080;22.214;2022-10-16T10:55:20;100486.72;;;23.39;40.97
21803;BME280;18591;47.080;22.214;2022-10-16T11:02:18;100495.81;;;23.39;42.21
21803;BME280;18591;47.080;22.214;2022-10-16T11:06:36;100493.88;;;23.53;42.83
21803;BME280;18591;47.080;22.214;2022-10-16T11:08:52;100493.88;;;23.53;42.10
21803;BME280;18591;47.080;22.214;2022-10-16T11:13:42;100492.66;;;23.57;41.18
21803;BME280;18591;47.080;22.214;2022-10-16T11:15:47;100490.81;;;23.68;42.83
21803;BME280;18591;47.080;22.214;2022-10-16T11:18:19;100482.94;;;23.77;41.89
21803;BME280;18591;47.080;22.214;2022-10-16T11:20:25;100472.06;;;23.86;42.95
21803;BME280;18591;47.080;22.214;2022-10-16T11:22:39;100484.81;;;23.87;42.29
21803;BME280;18591;47.080;22.214;2022-10-16T11:25:16;100470.84;;;23.90;42.40
21803;BME280;18591;47.080;22.214;2022-10-16T11:27:19;100477.84;;;23.95;41.52
21803;BME280;18591;47.080;22.214;2022-10-16T11:29:26;100470.50;;;23.95;42.39
21803;BME280;18591;47.080;22.214;2022-10-16T11:31:36;100469.84;;;23.91;41.31
21803;BME280;18591;47.080;22.214;2022-10-16T11:34:00;100468.97;;;23.91;41.46
21803;BME280;18591;47.080;22.214;2022-10-16T11:36:25;100458.16;;;24.01;41.67
21803;BME280;18591;47.080;22.214;2022-10-16T11:38:47;100461.50;;;24.04;41.00
21803;BME280;18591;47.080;22.214;2022-10-16T11:40:54;100467.66;;;24.08;42.08
21803;BME280;18591;47.080;22.214;2022-10-16T11:43:11;100465.88;;;24.07;41.80
21803;BME280;18591;47.080;22.214;2022-10-16T11:45:41;100472.25;;;24.07;42.09
21803;BME280;18591;47.080;22.214;2022-10-16T11:47:47;100471.00;;;24.11;41.36